Time;durP1;ratioP1;P1;durP2;ratioP2;P2;SDS_P1;SDS_P2;PMS_P1;PMS_P2;Temp;Humidity;BMP_temperature;BMP_pressure;BME280_temperature;BME280_humidity;BME280_pressure;Samples;Min_cycle;Max_cycle;Signal;HPM_P1;HPM_P2
2021/03/05 00:02:49;;;;;;;24.67;13.30;;;;;;;3.31;65.21;100243.48;2178128;81;28180;-61
2021/03/05 00:05:53;;;;;;;29.77;14.23;;;;;;;3.30;65.24;100246.19;2211575;80;28828;-61
2021/03/05 00:08:55;;;;;;;25.50;13.70;;;;;;;3.28;65.33;100247.98;2193285;80;32033;-61
2021/03/05 00:11:57;;;;;;;26.95;13.93;;;;;;;3.18;65.44;100237.56;2178486;80;33079;-61
2021/03/05 00:14:59;;;;;;;26.93;14.60;;;;;;;3.18;65.53;100250.80;2202887;80;28865;-62
2021/03/05 00:18:02;;;;;;;28.95;15.30;;;;;;;3.17;65.59;100257.46;2216703;80;27716;-62
2021/03/05 00:21:05;;;;;;;27.07;15.00;;;;;;;3.16;65.64;100267.16;2193468;80;28752;-61
2021/03/05 00:24:09;;;;;;;29.67;15.55;;;;;;;3.14;65.69;100269.42;2191659;80;31146;-61
2021/03/05 00:27:11;;;;;;;31.45;16.10;;;;;;;3.17;65.81;100266.73;2248920;78;33170;-61
2021/03/05 00:30:14;;;;;;;32.15;16.60;;;;;;;3.19;65.77;100263.13;2256290;78;28859;-61
2021/03/05 00:33:16;;;;;;;32.78;15.93;;;;;;;3.21;65.79;100259.16;2250173;78;27610;-61
2021/03/05 00:36:18;;;;;;;34.23;16.82;;;;;;;3.21;65.90;100259.16;2255243;78;31292;-61
2021/03/05 00:39:20;;;;;;;33.42;17.90;;;;;;;3.22;65.89;100255.61;2255587;78;33522;-61
2021/03/05 00:42:24;;;;;;;33.23;17.82;;;;;;;3.24;66.05;100256.89;2255242;78;33115;-61
2021/03/05 00:45:26;;;;;;;37.25;18.27;;;;;;;3.23;66.02;100263.94;2237443;78;28860;-61
2021/03/05 00:48:28;;;;;;;36.80;18.48;;;;;;;3.24;66.07;100272.77;2215548;80;27913;-61
2021/03/05 00:51:30;;;;;;;42.08;21.17;;;;;;;3.24;66.13;100267.48;2238053;78;31204;-62
2021/03/05 00:54:33;;;;;;;40.00;20.68;;;;;;;3.22;66.37;100270.60;2241045;78;31134;-61
2021/03/05 00:57:36;;;;;;;44.20;22.00;;;;;;;3.19;66.44;100275.05;2253992;78;33546;-62
2021/03/05 01:00:38;;;;;;;41.18;21.45;;;;;;;3.19;66.57;100273.73;2217204;78;28922;-62
2021/03/05 01:03:43;;;;;;;40.40;21.27;;;;;;;3.19;66.65;100267.11;2216327;78;27613;-62
2021/03/05 01:06:45;;;;;;;37.10;20.70;;;;;;;3.16;66.78;100254.39;2215439;80;28824;-62
2021/03/05 01:09:49;;;;;;;37.13;20.72;;;;;;;3.14;66.85;100256.19;2240991;78;31130;-64
2021/03/05 01:12:51;;;;;;;40.12;21.07;;;;;;;3.16;66.87;100254.39;2248958;78;33085;-62
2021/03/05 01:15:53;;;;;;;48.90;24.05;;;;;;;3.16;67.28;100255.25;2247146;78;29019;-62
2021/03/05 01:18:56;;;;;;;38.63;22.07;;;;;;;3.17;67.18;100253.49;2216471;80;27693;-62
2021/03/05 01:21:58;;;;;;;39.55;21.68;;;;;;;3.17;67.17;100257.00;2223238;78;28740;-63
2021/03/05 01:25:01;;;;;;;41.55;22.55;;;;;;;3.20;67.26;100264.02;2181624;81;31151;-63
2021/03/05 01:28:03;;;;;;;41.58;21.95;;;;;;;3.22;67.31;100266.20;2175075;81;34049;-63
2021/03/05 01:31:05;;;;;;;42.85;22.90;;;;;;;3.24;67.46;100266.15;2191733;80;29162;-63
2021/03/05 01:34:08;;;;;;;47.55;25.65;;;;;;;3.24;67.48;100265.69;2176108;81;27623;-63
2021/03/05 01:37:09;;;;;;;47.93;24.63;;;;;;;3.25;67.66;100265.25;2184644;80;28808;-63
2021/03/05 01:40:26;;;;;;;50.08;25.55;;;;;;;3.25;67.67;100266.11;2199525;80;31152;-63
2021/03/05 01:43:35;;;;;;;56.02;25.10;;;;;;;3.28;67.85;100274.46;2214520;80;34163;-63
2021/03/05 01:46:37;;;;;;;52.75;25.70;;;;;;;3.29;67.87;100272.23;2213241;80;30133;-63
2021/03/05 01:49:39;;;;;;;54.18;26.57;;;;;;;3.29;68.05;100273.56;2198108;80;28273;-63
2021/03/05 01:52:48;;;;;;;55.80;27.73;;;;;;;3.30;68.05;100278.81;2212488;80;31165;-63
2021/03/05 01:55:50;;;;;;;53.87;28.12;;;;;;;3.30;68.16;100276.63;2214599;80;31153;-63
2021/03/05 01:58:52;;;;;;;60.12;27.87;;;;;;;3.32;68.16;100279.66;2212404;80;33544;-63
2021/03/05 02:01:59;;;;;;;53.55;28.52;;;;;;;3.32;68.27;100278.77;2194304;80;29173;-63
2021/03/05 02:05:01;;;;;;;55.45;27.80;;;;;;;3.33;68.47;100287.13;2192221;80;27603;-63
2021/03/05 02:08:05;;;;;;;54.83;28.47;;;;;;;3.33;68.62;100284.05;2196140;80;29559;-62
2021/03/05 02:11:08;;;;;;;35.30;19.40;;;;;;;3.31;68.63;100294.27;2209766;80;31240;-63
2021/03/05 02:14:11;;;;;;;51.40;28.10;;;;;;;3.31;68.69;100287.64;2214639;80;33073;-62
2021/03/05 02:17:31;;;;;;;59.67;27.25;;;;;;;3.31;68.78;100290.29;2214111;80;29213;-63
2021/03/05 02:21:09;;;;;;;50.92;27.42;;;;;;;3.29;68.91;100290.77;2197658;80;27724;-63
2021/03/05 02:24:22;;;;;;;51.10;28.20;;;;;;;3.26;68.90;100279.77;2175222;81;29271;-62
2021/03/05 02:28:01;;;;;;;47.88;26.33;;;;;;;3.27;68.94;100288.59;2177044;80;31576;-62
2021/03/05 02:31:24;;;;;;;54.75;27.80;;;;;;;3.27;69.07;100288.59;2176009;80;33129;-62
2021/03/05 02:34:30;;;;;;;51.80;27.93;;;;;;;3.22;69.18;100283.41;2196019;80;29273;-62
2021/03/05 02:37:38;;;;;;;56.60;30.30;;;;;;;3.19;69.28;100279.48;2206014;80;27677;-63
2021/03/05 02:40:41;;;;;;;53.15;28.23;;;;;;;3.17;69.53;100282.61;2188357;80;31090;-62
2021/03/05 02:43:43;;;;;;;59.58;30.68;;;;;;;3.15;69.46;100291.88;2178000;80;31133;-62
2021/03/05 02:46:47;;;;;;;53.02;28.83;;;;;;;3.15;69.67;100295.00;2182026;80;33691;-61
2021/03/05 02:49:55;;;;;;;47.95;27.20;;;;;;;3.14;69.75;100291.92;2214097;80;29145;-62
2021/03/05 02:53:01;;;;;;;53.48;27.95;;;;;;;3.14;69.75;100294.58;2213835;80;27930;-61
2021/03/05 02:56:08;;;;;;;54.25;27.73;;;;;;;3.14;69.75;100289.28;2214633;80;28758;-62
2021/03/05 02:59:13;;;;;;;56.30;28.50;;;;;;;3.16;69.82;100296.75;2177414;80;31353;-63
2021/03/05 03:02:16;;;;;;;55.25;27.80;;;;;;;3.15;69.75;100297.64;2175942;80;33165;-62
2021/03/05 03:05:17;;;;;;;52.62;28.42;;;;;;;3.17;69.87;100301.14;2175557;81;29091;-62
2021/03/05 03:08:21;;;;;;;51.83;27.98;;;;;;;3.17;69.89;100301.14;2185246;80;27725;-62
2021/03/05 03:11:24;;;;;;;48.70;26.48;;;;;;;3.16;70.04;100304.69;2175781;81;28786;-62
2021/03/05 03:14:26;;;;;;;46.95;26.25;;;;;;;3.15;70.16;100302.94;2203592;80;31152;-61
2021/03/05 03:17:29;;;;;;;45.28;25.65;;;;;;;3.12;70.37;100299.91;2187650;80;34013;-62
2021/03/05 03:20:31;;;;;;;46.42;26.33;;;;;;;3.05;70.33;100311.50;2175997;81;29171;-62
2021/03/05 03:23:34;;;;;;;44.33;26.45;;;;;;;2.99;70.40;100311.59;2176668;80;27670;-62
2021/03/05 03:26:38;;;;;;;48.58;26.20;;;;;;;2.96;70.55;100319.16;2189782;80;28987;-62
2021/03/05 03:29:43;;;;;;;46.15;25.20;;;;;;;2.95;70.79;100320.52;2200737;80;30333;-62
2021/03/05 03:32:45;;;;;;;;;;;;;;;2.91;70.84;100318.81;2182221;80;33194;-62
2021/03/05 03:35:48;;;;;;;50.03;26.48;;;;;;;2.88;71.02;100321.94;2190210;80;29312;-61
2021/03/05 03:38:50;;;;;;;45.67;24.92;;;;;;;2.86;71.12;100329.48;2212642;80;27812;-62
2021/03/05 03:41:53;;;;;;;45.15;25.82;;;;;;;2.84;71.25;100336.11;2185783;80;29765;-62
2021/03/05 03:44:55;;;;;;;46.25;25.97;;;;;;;2.84;71.35;100337.44;2208645;80;32014;-62
2021/03/05 03:47:59;;;;;;;42.80;23.73;;;;;;;2.80;71.34;100330.47;2194828;80;33552;-62
2021/03/05 03:51:03;;;;;;;39.92;21.85;;;;;;;2.73;71.36;100334.11;2214142;80;29276;-61
2021/03/05 03:54:06;;;;;;;33.70;21.10;;;;;;;2.67;71.57;100335.52;2208360;80;27705;-62
2021/03/05 03:57:09;;;;;;;27.45;16.90;;;;;;;2.57;71.56;100334.36;2186258;80;28827;-61
2021/03/05 04:00:14;;;;;;;30.80;18.45;;;;;;;2.49;71.82;100341.99;2180412;80;31146;-61
2021/03/05 04:03:18;;;;;;;28.52;16.90;;;;;;;2.38;72.30;100352.30;2175959;81;34158;-62
2021/03/05 04:06:23;;;;;;;32.83;18.67;;;;;;;2.18;72.48;100346.42;2176376;80;29136;-63
2021/03/05 04:09:26;;;;;;;;;;;;;;;2.07;73.12;100357.14;2183101;80;27653;-61
2021/03/05 04:12:29;;;;;;;26.85;16.75;;;;;;;1.96;72.42;100373.13;2214346;80;28965;-62
2021/03/05 04:15:32;;;;;;;23.55;14.38;;;;;;;1.82;72.40;100369.37;2192766;80;32137;-62
2021/03/05 04:18:36;;;;;;;18.25;12.78;;;;;;;1.75;72.57;100380.42;2175454;81;33117;-61
2021/03/05 04:21:38;;;;;;;18.67;13.40;;;;;;;1.66;72.88;100387.15;2204614;80;29166;-62
2021/03/05 04:24:40;;;;;;;21.62;13.30;;;;;;;1.58;72.69;100391.62;2213756;80;27637;-62
2021/03/05 04:27:43;;;;;;;20.32;13.68;;;;;;;1.54;72.70;100399.17;2165947;80;28838;-62
2021/03/05 04:30:46;;;;;;;22.90;13.60;;;;;;;1.50;72.81;100401.84;2158000;81;31131;-62
2021/03/05 04:33:48;;;;;;;20.82;15.05;;;;;;;1.46;73.14;100407.17;2212255;80;33983;-61
2021/03/05 04:36:50;;;;;;;23.77;14.28;;;;;;;1.42;73.34;100415.55;2189406;80;29260;-62
2021/03/05 04:39:53;;;;;;;23.85;13.95;;;;;;;1.37;73.30;100412.11;2163227;82;27622;-62
2021/03/05 04:42:55;;;;;;;19.07;13.45;;;;;;;1.35;73.38;100413.42;2203949;79;28835;-61
2021/03/05 04:45:58;;;;;;;23.00;14.28;;;;;;;1.38;73.74;100428.80;2220837;79;31252;-62
2021/03/05 04:49:00;;;;;;;22.50;14.13;;;;;;;1.38;73.50;100431.02;2238836;79;33129;-63
2021/03/05 04:52:03;;;;;;;23.35;15.40;;;;;;;1.40;73.49;100427.02;2242704;79;30308;-63
2021/03/05 04:55:07;;;;;;;23.62;15.00;;;;;;;1.40;73.49;100433.63;2229185;79;27711;-62
2021/03/05 04:58:10;;;;;;;23.70;15.30;;;;;;;1.35;73.88;100434.53;2204378;79;29752;-61
2021/03/05 05:01:14;;;;;;;25.17;15.48;;;;;;;1.30;74.23;100432.41;2204220;79;31139;-63
2021/03/05 05:04:17;;;;;;;25.05;14.78;;;;;;;1.29;73.89;100433.30;2229925;79;34033;-63
2021/03/05 05:07:26;;;;;;;23.60;15.55;;;;;;;1.28;73.92;100442.09;2226928;79;29169;-62
2021/03/05 05:10:32;;;;;;;25.45;14.75;;;;;;;1.27;73.88;100442.98;2116389;83;28258;-63
2021/03/05 05:13:34;;;;;;;27.45;14.80;;;;;;;1.23;73.84;100442.58;2130339;83;29256;-63
2021/03/05 05:16:37;;;;;;;30.75;14.93;;;;;;;1.19;73.86;100443.05;2129354;83;31160;-62
2021/03/05 05:19:39;;;;;;;27.45;14.28;;;;;;;1.16;74.07;100450.99;2130256;83;33166;-62
2021/03/05 05:22:41;;;;;;;21.00;13.15;;;;;;;1.16;74.24;100450.99;2130280;83;29116;-62
2021/03/05 05:25:45;;;;;;;21.57;12.70;;;;;;;1.13;74.35;100446.20;2121070;83;27757;-62
2021/03/05 05:28:47;;;;;;;18.70;12.20;;;;;;;1.09;74.16;100449.73;2090445;84;29582;-62
2021/03/05 05:31:49;;;;;;;20.48;13.08;;;;;;;1.05;74.17;100457.67;2107527;84;31146;-62
2021/03/05 05:34:52;;;;;;;21.57;11.97;;;;;;;1.03;74.25;100464.72;2176190;81;33583;-62
2021/03/05 05:37:54;;;;;;;18.12;10.63;;;;;;;1.01;74.07;100463.84;2171551;81;29368;-61
2021/03/05 05:41:02;;;;;;;19.45;11.08;;;;;;;0.99;74.09;100473.99;2171175;81;27826;-61
2021/03/05 05:44:09;;;;;;;21.02;10.63;;;;;;;0.95;73.93;100484.13;2175881;81;28816;-62
2021/03/05 05:47:18;;;;;;;32.08;13.78;;;;;;;0.96;73.99;100476.65;2139699;83;27901;-63
2021/03/05 05:50:32;;;;;;;24.80;14.03;;;;;;;0.99;73.99;100482.80;2392669;74;28166;-63
2021/03/05 05:53:35;;;;;;;35.52;15.18;;;;;;;0.95;73.98;100499.53;2354195;75;28176;-62
2021/03/05 05:56:41;;;;;;;31.77;14.90;;;;;;;0.93;74.11;100498.66;2326599;75;28733;-63
2021/03/05 05:59:44;;;;;;;35.52;16.25;;;;;;;0.91;73.94;100513.16;2349436;75;31197;-62
2021/03/05 06:02:47;;;;;;;29.82;14.83;;;;;;;0.90;73.90;100509.22;2317870;75;33184;-61
2021/03/05 06:05:53;;;;;;;32.90;14.07;;;;;;;0.91;73.82;100513.61;2320146;75;28538;-62
2021/03/05 06:09:00;;;;;;;18.55;9.88;;;;;;;0.94;73.83;100520.62;2312703;76;28141;-62
2021/03/05 06:12:14;;;;;;;17.15;9.13;;;;;;;0.97;73.84;100528.52;2323210;74;28802;-61
2021/03/05 06:15:21;;;;;;;22.13;13.83;;;;;;;0.98;73.56;100531.59;2339226;75;30372;-62
2021/03/05 06:18:29;;;;;;;18.92;9.60;;;;;;;1.04;73.69;100544.30;2355246;75;33097;-62
2021/03/05 06:21:40;;;;;;;20.90;9.88;;;;;;;1.08;73.40;100551.73;2355173;75;29318;-63
2021/03/05 06:24:44;;;;;;;16.77;8.10;;;;;;;1.13;73.44;100555.23;2261539;78;28313;-62
2021/03/05 06:27:46;;;;;;;18.12;8.90;;;;;;;1.16;73.08;100570.19;2268656;78;28816;-63
2021/03/05 06:30:48;;;;;;;14.87;7.20;;;;;;;1.19;73.28;100576.73;2278818;78;31152;-62
2021/03/05 06:34:03;;;;;;;17.42;8.55;;;;;;;1.19;72.78;100574.10;2263288;78;34475;-61
2021/03/05 06:37:06;;;;;;;12.35;7.53;;;;;;;1.18;72.88;100589.50;2289540;77;28900;-65
2021/03/05 06:40:10;;;;;;;16.00;7.47;;;;;;;1.20;72.91;100587.73;2260502;77;27730;-64
2021/03/05 06:43:12;;;;;;;15.63;8.35;;;;;;;1.25;72.78;100600.89;2283420;77;28236;-64
2021/03/05 06:46:36;;;;;;;16.30;8.45;;;;;;;1.26;72.60;100599.58;2273383;77;31117;-64
2021/03/05 06:49:40;;;;;;;23.73;8.95;;;;;;;1.26;72.45;100610.14;2288381;77;35422;-62
2021/03/05 06:52:42;;;;;;;20.52;10.55;;;;;;;1.27;72.58;100617.59;2263540;77;29634;-64
2021/03/05 06:55:44;;;;;;;24.52;12.03;;;;;;;1.32;72.64;100629.02;2267641;77;28205;-63
2021/03/05 06:59:07;;;;;;;25.48;10.85;;;;;;;1.36;72.43;100629.44;2274078;77;28804;-63
2021/03/05 07:05:48;;;;;;;27.37;15.70;;;;;;;1.52;72.33;100652.63;2388970;74;27621;-64
2021/03/05 07:08:50;;;;;;;17.15;11.00;;;;;;;1.53;72.32;100651.75;2340564;75;27643;-64
2021/03/05 07:11:53;;;;;;;29.57;14.47;;;;;;;1.60;72.41;100657.86;2347775;75;28823;-63
2021/03/05 07:18:22;;;;;;;22.97;12.17;;;;;;;1.75;72.21;100667.45;2279135;76;27734;-65
2021/03/05 07:21:25;;;;;;;44.80;14.50;;;;;;;1.67;72.26;100674.97;2241238;79;27770;-65
2021/03/05 07:24:29;;;;;;;20.43;10.50;;;;;;;1.62;72.00;100677.22;2250076;79;28881;-65
2021/03/05 07:27:39;;;;;;;21.05;11.28;;;;;;;1.58;72.05;100686.03;2210767;79;30474;-64
2021/03/05 07:30:42;;;;;;;35.92;12.60;;;;;;;1.54;72.09;100679.05;2235955;79;33102;-63
2021/03/05 07:33:51;;;;;;;26.15;11.28;;;;;;;1.54;71.96;100686.97;2245981;79;28554;-64
2021/03/05 07:36:57;;;;;;;15.13;9.60;;;;;;;1.47;71.79;100696.69;2191337;80;28474;-64
2021/03/05 07:40:07;;;;;;;29.82;10.38;;;;;;;1.44;71.42;100703.30;2210248;80;28902;-65
2021/03/05 07:43:11;;;;;;;17.90;9.68;;;;;;;1.39;71.19;100702.02;2208939;80;32075;-65
2021/03/05 07:46:13;;;;;;;17.35;9.38;;;;;;;1.34;71.23;100703.79;2233087;79;33155;-65
2021/03/05 07:49:17;;;;;;;22.65;10.03;;;;;;;1.32;71.21;100713.05;2222821;79;28972;-64
2021/03/05 07:52:20;;;;;;;25.50;12.80;;;;;;;1.37;71.14;100724.90;2229912;79;27756;-64
2021/03/05 07:55:42;;;;;;;19.27;9.60;;;;;;;1.48;71.42;100726.17;2239273;79;28813;-64
2021/03/05 07:58:48;;;;;;;29.70;13.45;;;;;;;1.59;71.04;100732.69;2167218;80;31663;-64
2021/03/05 08:01:55;;;;;;;18.32;9.55;;;;;;;1.82;71.00;100733.89;2169315;81;33590;-64
2021/03/05 08:05:01;;;;;;;20.65;9.68;;;;;;;2.02;70.30;100735.06;2191176;81;28873;-64
2021/03/05 08:08:23;;;;;;;19.40;9.90;;;;;;;2.17;70.57;100740.66;2151640;82;27583;-64
2021/03/05 08:11:26;;;;;;;16.85;9.55;;;;;;;2.32;70.11;100742.77;2150699;81;29249;-65
2021/03/05 08:14:30;;;;;;;20.30;11.40;;;;;;;2.36;69.19;100740.09;2170683;81;30519;-64
2021/03/05 08:17:33;;;;;;;18.80;11.08;;;;;;;2.42;69.00;100755.87;2152536;81;33146;-64
2021/03/05 08:20:41;;;;;;;30.62;12.78;;;;;;;2.42;69.00;100760.30;2188824;81;28844;-64
2021/03/05 08:24:24;;;;;;;23.98;12.68;;;;;;;2.52;68.99;100758.00;2154758;81;27693;-64
2021/03/05 08:27:37;;;;;;;31.48;13.15;;;;;;;2.76;69.13;100761.31;2158149;81;29810;-66
2021/03/05 08:30:42;;;;;;;16.57;8.15;;;;;;;2.98;68.36;100757.13;2168425;81;31152;-68
2021/03/05 08:33:45;;;;;;;13.30;7.33;;;;;;;3.19;68.00;100767.45;2187387;81;33151;-68
2021/03/05 08:36:47;;;;;;;11.80;6.28;;;;;;;3.35;67.03;100769.92;2161921;81;28881;-69
2021/03/05 08:39:49;;;;;;;10.93;6.87;;;;;;;3.59;66.99;100774.50;2150972;81;27638;-69
2021/03/05 08:42:55;;;;;;;12.78;6.40;;;;;;;3.85;66.19;100775.90;2158655;81;28710;-66
2021/03/05 08:46:04;;;;;;;12.07;5.80;;;;;;;3.88;66.31;100775.86;2169415;81;31142;-64
2021/03/05 08:49:06;;;;;;;11.43;5.72;;;;;;;3.89;64.62;100776.29;2151933;81;33177;-66
2021/03/05 08:52:09;;;;;;;17.40;5.78;;;;;;;3.77;64.47;100784.85;2184364;81;29316;-63
2021/03/05 08:55:12;;;;;;;9.35;6.30;;;;;;;3.73;64.46;100791.08;2151436;81;27706;-64
2021/03/05 08:58:17;;;;;;;8.18;4.83;;;;;;;3.67;64.78;100786.31;2172849;81;29061;-63
2021/03/05 09:01:39;;;;;;;9.70;5.75;;;;;;;3.60;63.44;100790.81;2168709;81;31218;-64
2021/03/05 09:04:41;;;;;;;18.42;8.38;;;;;;;3.56;64.25;100791.75;2150529;82;33124;-63
2021/03/05 09:07:55;;;;;;;19.65;8.23;;;;;;;3.38;61.48;100808.75;2160937;81;28871;-65
2021/03/05 09:11:04;;;;;;;20.05;8.38;;;;;;;3.19;61.93;100800.55;2163965;79;27728;-65
2021/03/05 09:14:26;;;;;;;15.98;7.42;;;;;;;3.31;63.50;100803.98;2158979;81;28816;-66
2021/03/05 09:17:28;;;;;;;13.15;5.25;;;;;;;3.43;62.60;100803.83;2191028;81;31195;-61
2021/03/05 09:20:43;;;;;;;26.23;6.67;;;;;;;3.43;61.09;100812.20;2192238;80;33382;-65
2021/03/05 09:23:47;;;;;;;10.25;4.58;;;;;;;3.37;62.24;100809.64;2206912;80;28860;-62
2021/03/05 09:26:48;;;;;;;14.43;6.33;;;;;;;3.30;61.64;100807.52;2178656;80;27617;-61
2021/03/05 09:29:51;;;;;;;7.42;4.53;;;;;;;3.21;62.08;100818.19;2191245;80;28827;-61
2021/03/05 09:32:56;;;;;;;10.13;4.90;;;;;;;3.12;62.32;100819.17;2180605;80;31142;-60
2021/03/05 09:36:15;;;;;;;11.97;4.58;;;;;;;3.03;61.48;100824.11;2196412;80;35557;-61
2021/03/05 09:39:17;;;;;;;9.08;4.83;;;;;;;2.92;61.31;100825.99;2176879;81;28832;-58
2021/03/05 09:42:50;;;;;;;8.48;3.50;;;;;;;2.85;61.78;100827.82;2185268;81;27806;-62
2021/03/05 09:45:52;;;;;;;98.65;9.38;;;;;;;2.86;61.23;100829.12;2177224;81;28815;-61
2021/03/05 09:48:56;;;;;;;6.03;2.70;;;;;;;3.11;60.54;100822.70;2160843;78;31584;-61
2021/03/05 09:51:58;;;;;;;5.55;2.65;;;;;;;3.39;61.16;100831.70;2164232;80;33142;-60
2021/03/05 09:55:00;;;;;;;6.42;2.67;;;;;;;3.62;60.38;100838.05;2160584;82;28022;-61
2021/03/05 09:58:11;;;;;;;6.22;2.30;;;;;;;3.87;60.27;100832.41;2168443;80;28121;-61
2021/03/05 10:01:14;;;;;;;2.77;1.77;;;;;;;3.97;58.63;100838.47;2169485;80;29897;-63
2021/03/05 10:04:16;;;;;;;5.87;2.72;;;;;;;3.93;57.16;100850.90;2160305;82;32128;-63
2021/03/05 10:07:19;;;;;;;17.12;4.08;;;;;;;3.80;58.17;100849.74;2179524;80;34047;-61
2021/03/05 10:10:21;;;;;;;8.03;3.55;;;;;;;3.77;57.24;100855.08;2184387;81;28873;-63
2021/03/05 10:13:54;;;;;;;7.15;2.02;;;;;;;3.84;58.59;100853.22;2223981;79;27772;-62
2021/03/05 10:20:31;;;;;;;6.07;2.03;;;;;;;4.20;54.68;100867.31;2235668;77;27569;-62
2021/03/05 10:23:34;;;;;;;12.98;5.65;;;;;;;4.09;54.53;100862.16;2193516;80;27688;-62
2021/03/05 10:26:36;;;;;;;9.73;4.75;;;;;;;4.11;54.93;100869.64;2173851;80;29798;-62
2021/03/05 10:29:57;;;;;;;12.33;3.52;;;;;;;4.05;54.87;100876.38;2189660;80;31123;-66
2021/03/05 10:33:00;;;;;;;6.10;2.67;;;;;;;4.10;55.73;100888.67;2194715;80;33550;-59
2021/03/05 10:36:05;;;;;;;7.62;3.67;;;;;;;4.20;54.75;100892.08;2193719;80;28550;-60
2021/03/05 10:39:07;;;;;;;6.22;2.75;;;;;;;4.16;53.27;100881.51;2188405;80;27664;-59
2021/03/05 10:42:14;;;;;;;4.10;2.37;;;;;;;4.17;54.76;100897.84;2189150;80;29357;-59
2021/03/05 10:45:16;;;;;;;7.12;2.27;;;;;;;4.12;53.88;100898.37;2180563;80;32147;-60
2021/03/05 10:48:19;;;;;;;13.18;5.55;;;;;;;4.03;54.44;100907.33;2214507;80;33114;-59
2021/03/05 10:51:21;;;;;;;16.17;6.55;;;;;;;3.88;53.19;100901.33;2206404;80;28859;-58
2021/03/05 10:54:24;;;;;;;15.15;4.62;;;;;;;3.88;53.86;100900.00;2134515;83;27721;-60
2021/03/05 10:57:27;;;;;;;4.33;1.90;;;;;;;3.97;52.58;100906.07;2112436;83;28847;-62
2021/03/05 11:00:29;;;;;;;4.12;1.90;;;;;;;4.05;52.49;100895.80;2115066;83;32065;-60
2021/03/05 11:03:32;;;;;;;4.78;2.42;;;;;;;4.24;50.76;100904.84;2141982;82;34106;-60
2021/03/05 11:06:34;;;;;;;6.12;2.50;;;;;;;4.25;49.81;100903.48;2133109;82;31127;-61
2021/03/05 11:09:37;;;;;;;6.30;2.35;;;;;;;4.29;51.93;100908.75;2129106;82;28042;-62
2021/03/05 11:12:39;;;;;;;6.60;3.98;;;;;;;4.29;51.46;100908.31;2112850;82;28826;-61
2021/03/05 11:15:41;;;;;;;11.35;4.35;;;;;;;4.24;52.79;100913.66;2115536;82;31362;-60
2021/03/05 11:18:44;;;;;;;8.63;4.40;;;;;;;4.21;52.80;100916.38;2118979;82;33125;-60
2021/03/05 11:21:46;;;;;;;5.65;2.70;;;;;;;4.35;53.00;100916.62;2130685;82;31195;-62
2021/03/05 11:24:49;;;;;;;4.33;1.77;;;;;;;4.50;51.50;100915.52;2135944;82;27722;-61
2021/03/05 11:27:52;;;;;;;7.90;2.55;;;;;;;4.54;50.30;100914.14;2153619;82;28675;-60
2021/03/05 11:30:54;;;;;;;2.95;1.67;;;;;;;4.53;49.21;100920.78;2158889;82;31154;-60
2021/03/05 11:33:57;;;;;;;3.52;2.20;;;;;;;4.48;49.28;100923.94;2150187;82;34133;-61
2021/03/05 11:36:59;;;;;;;3.92;1.62;;;;;;;4.40;48.39;100925.37;2141556;82;28800;-60
2021/03/05 11:40:02;;;;;;;3.83;1.57;;;;;;;4.46;50.21;100928.42;2140207;82;27805;-61
2021/03/05 11:43:05;;;;;;;4.37;1.92;;;;;;;4.59;48.40;100923.79;2139391;82;29245;-62
2021/03/05 11:46:08;;;;;;;4.50;2.20;;;;;;;4.65;48.32;100917.08;2128673;82;31141;-61
2021/03/05 11:49:10;;;;;;;8.33;2.30;;;;;;;4.64;49.53;100928.59;2139059;82;35436;-59
2021/03/05 11:52:12;;;;;;;5.17;2.00;;;;;;;4.63;50.30;100933.47;2145660;82;28932;-60
2021/03/05 11:55:15;;;;;;;8.10;3.70;;;;;;;4.54;49.66;100927.41;2136039;82;28001;-61
2021/03/05 11:58:19;;;;;;;35.23;15.63;;;;;;;4.41;50.22;100937.75;2125361;82;28836;-58
2021/03/05 12:01:22;;;;;;;13.32;7.78;;;;;;;4.34;50.42;100934.77;2125120;82;31591;-60
2021/03/05 12:04:24;;;;;;;8.38;3.90;;;;;;;4.31;50.29;100952.05;2153067;82;33107;-59
2021/03/05 12:07:26;;;;;;;4.17;2.12;;;;;;;4.34;50.93;100940.94;2125455;82;29285;-59
2021/03/05 12:10:29;;;;;;;4.85;1.67;;;;;;;4.46;50.84;100945.20;2135940;82;27679;-59
2021/03/05 12:13:31;;;;;;;3.98;2.15;;;;;;;4.65;50.01;100948.92;2122002;83;30040;-59
2021/03/05 12:16:34;;;;;;;7.92;3.60;;;;;;;4.82;49.85;100942.91;2121905;82;32215;-62
2021/03/05 12:19:36;;;;;;;6.80;1.85;;;;;;;4.96;48.40;100952.44;2149052;81;33322;-59
2021/03/05 12:22:38;;;;;;;4.62;1.70;;;;;;;4.95;48.79;100946.27;2147575;82;29738;-58
2021/03/05 12:25:41;;;;;;;2.92;1.98;;;;;;;4.95;47.12;100948.02;2147788;82;27619;-59
2021/03/05 12:28:44;;;;;;;2.80;1.30;;;;;;;4.97;48.35;100951.06;2147431;82;29485;-59
2021/03/05 12:31:46;;;;;;;7.45;3.20;;;;;;;5.09;48.30;100948.67;2147406;82;32132;-60
2021/03/05 12:34:49;;;;;;;6.58;2.22;;;;;;;5.23;48.50;100936.50;2147498;82;32909;-59
2021/03/05 12:37:52;;;;;;;4.45;2.20;;;;;;;5.35;46.35;100954.45;2130456;82;29419;-59
2021/03/05 12:40:54;;;;;;;4.22;2.20;;;;;;;5.29;47.07;100951.02;2110669;84;27677;-59
2021/03/05 12:43:57;;;;;;;6.03;2.50;;;;;;;5.28;48.28;100954.58;2111154;84;29253;-59
2021/03/05 12:47:01;;;;;;;4.75;3.20;;;;;;;5.38;48.83;100960.58;2111143;84;33470;-59
2021/03/05 12:50:06;;;;;;;63.35;9.10;;;;;;;5.47;48.81;100973.72;2110893;84;33193;-60
2021/03/05 12:53:08;;;;;;;6.40;1.75;;;;;;;5.45;48.14;100974.66;2111282;82;28931;-59
2021/03/05 12:56:11;;;;;;;4.42;1.85;;;;;;;5.44;46.09;100979.08;2111345;84;27706;-59
2021/03/05 12:59:13;;;;;;;5.72;2.17;;;;;;;5.29;45.72;100980.67;2113552;82;29898;-62
2021/03/05 13:02:16;;;;;;;5.55;1.72;;;;;;;5.06;45.97;100985.03;2120555;82;32581;-59
2021/03/05 13:05:18;;;;;;;3.15;2.02;;;;;;;4.95;47.17;100982.55;2116236;82;33164;-59
2021/03/05 13:08:20;;;;;;;7.92;1.92;;;;;;;4.89;46.48;100988.83;2116295;82;28872;-58
2021/03/05 13:11:22;;;;;;;5.42;2.00;;;;;;;4.91;47.44;100991.44;2116908;82;27652;-66
2021/03/05 13:14:25;;;;;;;6.37;2.52;;;;;;;4.95;47.74;100991.83;2123347;82;28839;-71
2021/03/05 13:17:27;;;;;;;10.40;4.40;;;;;;;5.04;47.93;100988.16;2137463;82;31606;-70
2021/03/05 13:20:29;;;;;;;3.77;2.17;;;;;;;5.16;47.88;100994.16;2124158;82;33658;-69
2021/03/05 13:23:31;;;;;;;5.30;1.95;;;;;;;5.26;46.91;100994.89;2111115;84;29524;-71
2021/03/05 13:26:34;;;;;;;5.97;1.70;;;;;;;5.27;46.65;100998.41;2119667;82;27603;-68
2021/03/05 13:29:35;;;;;;;3.37;1.72;;;;;;;5.29;46.51;101002.82;2111176;84;29800;-69
2021/03/05 13:32:38;;;;;;;5.22;2.25;;;;;;;5.36;46.31;100997.39;2111218;84;31085;-68
2021/03/05 13:35:40;;;;;;;6.00;2.80;;;;;;;5.40;44.76;101013.70;2114493;82;33568;-68
2021/03/05 13:38:42;;;;;;;3.17;1.52;;;;;;;5.26;43.91;101008.61;2111175;82;28851;-67
2021/03/05 13:41:44;;;;;;;4.03;2.25;;;;;;;5.19;45.24;101010.49;2114840;82;27813;-68
2021/03/05 13:44:46;;;;;;;3.98;2.52;;;;;;;5.22;46.04;101018.85;2111292;84;28826;-66
2021/03/05 13:47:48;;;;;;;4.50;2.62;;;;;;;5.25;46.43;101029.44;2111749;82;31162;-60
2021/03/05 13:50:51;;;;;;;4.62;2.65;;;;;;;5.15;45.21;101026.05;2110953;82;33227;-60
2021/03/05 13:53:53;;;;;;;5.80;2.75;;;;;;;4.91;46.25;101030.84;2116896;82;28865;-60
2021/03/05 13:56:55;;;;;;;5.22;3.20;;;;;;;4.70;47.02;101046.16;2111367;82;28194;-59
2021/03/05 13:59:58;;;;;;;5.72;2.80;;;;;;;4.56;47.78;101046.78;2129108;81;29192;-60
2021/03/05 14:03:02;;;;;;;8.83;2.95;;;;;;;4.47;48.02;101039.81;2130485;81;33413;-59
2021/03/05 14:06:07;;;;;;;8.30;2.50;;;;;;;4.45;48.09;101042.07;2148556;82;33139;-60
2021/03/05 14:09:09;;;;;;;5.25;2.92;;;;;;;4.45;48.16;101049.56;2138200;82;30271;-59
2021/03/05 14:12:12;;;;;;;7.12;2.65;;;;;;;4.41;48.15;101050.06;2152817;82;27722;-61
2021/03/05 14:15:16;;;;;;;5.33;2.22;;;;;;;4.34;48.64;101051.02;2130619;82;28818;-57
2021/03/05 14:18:18;;;;;;;7.58;2.90;;;;;;;4.25;48.66;101049.34;2124462;83;32123;-59
2021/03/05 14:21:20;;;;;;;6.45;2.50;;;;;;;4.19;48.86;101059.15;2152457;82;33174;-60
2021/03/05 14:24:23;;;;;;;4.28;2.42;;;;;;;4.02;47.89;101060.67;2137444;83;29853;-60
2021/03/05 14:27:25;;;;;;;6.75;2.98;;;;;;;3.84;47.80;101061.70;2124489;83;28266;-58
2021/03/05 14:30:28;;;;;;;4.60;1.90;;;;;;;3.65;48.02;101069.82;2104339;84;29260;-58